createdAt,value
2019-03-27T00:00:49.313Z,6.66
2019-03-27T00:03:13.717Z,6.51
2019-03-27T00:05:38.299Z,6.33
2019-03-27T00:08:02.692Z,6.19
2019-03-27T00:10:27.125Z,6.49
2019-03-27T00:12:51.538Z,6.33
2019-03-27T00:15:16.090Z,6.27
2019-03-27T00:17:40.709Z,6.47
2019-03-27T00:20:09.771Z,6.34
2019-03-27T00:22:34.189Z,6.58
2019-03-27T00:24:58.672Z,6.61
2019-03-27T00:27:23.091Z,6.51
2019-03-27T00:29:47.623Z,6.05
2019-03-27T00:32:12.200Z,6.07
2019-03-27T00:34:36.613Z,6.00
2019-03-27T00:37:01.043Z,5.99
2019-03-27T00:39:25.444Z,5.86
2019-03-27T00:41:49.952Z,6.04
2019-03-27T00:44:14.427Z,6.13
2019-03-27T00:46:38.855Z,6.16
2019-03-27T00:49:03.265Z,5.99
2019-03-27T00:51:27.717Z,6.17
2019-03-27T00:53:52.115Z,6.06
2019-03-27T00:56:16.538Z,6.28
2019-03-27T00:58:40.950Z,6.32
2019-03-27T01:01:09.552Z,6.53
2019-03-27T01:03:33.952Z,6.24
2019-03-27T01:05:58.464Z,6.41
2019-03-27T01:08:22.944Z,6.57
2019-03-27T01:10:47.397Z,6.92
2019-03-27T01:13:11.797Z,6.99
2019-03-27T01:15:40.121Z,6.44
2019-03-27T01:18:02.497Z,6.36
2019-03-27T01:20:26.914Z,6.27
2019-03-27T01:22:51.358Z,6.45
2019-03-27T01:25:15.846Z,6.53
2019-03-27T01:27:40.276Z,6.88
2019-03-27T01:30:06.728Z,6.73
2019-03-27T01:32:31.161Z,6.85
2019-03-27T01:34:55.575Z,6.58
2019-03-27T01:37:20.028Z,6.79
2019-03-27T01:39:44.492Z,6.84
2019-03-27T01:42:09.006Z,6.75
2019-03-27T01:44:33.434Z,6.48
2019-03-27T01:46:57.885Z,6.56
2019-03-27T01:49:22.379Z,6.55
2019-03-27T01:51:46.794Z,6.57
2019-03-27T01:54:11.241Z,6.32
2019-03-27T01:56:35.650Z,6.79
2019-03-27T01:59:00.090Z,6.90
2019-03-27T02:01:24.525Z,7.13
2019-03-27T02:03:48.928Z,7.34
2019-03-27T02:06:13.409Z,7.15
2019-03-27T02:08:37.851Z,6.85
2019-03-27T02:11:03.109Z,7.07
2019-03-27T02:13:27.538Z,7.38
2019-03-27T02:15:52.022Z,7.17
2019-03-27T02:18:16.453Z,7.02
2019-03-27T02:20:40.926Z,7.02
2019-03-27T02:23:05.506Z,6.98
2019-03-27T02:25:29.974Z,7.01
2019-03-27T02:27:54.474Z,7.20
2019-03-27T02:30:19.028Z,7.56
2019-03-27T02:32:43.431Z,7.17
2019-03-27T02:35:07.952Z,7.09
2019-03-27T02:37:32.367Z,7.24
2019-03-27T02:39:56.779Z,6.86
2019-03-27T02:42:21.186Z,7.04
2019-03-27T02:44:45.633Z,6.74
2019-03-27T02:47:10.019Z,7.12
2019-03-27T02:49:34.454Z,7.48
2019-03-27T02:51:58.856Z,7.67
2019-03-27T02:54:23.286Z,7.40
2019-03-27T02:56:47.701Z,7.26
2019-03-27T02:59:12.171Z,7.38
2019-03-27T03:01:36.561Z,7.32
2019-03-27T03:04:01.074Z,7.38
2019-03-27T03:06:25.673Z,7.04
2019-03-27T03:08:50.094Z,7.07
2019-03-27T03:11:14.506Z,6.75
2019-03-27T03:13:38.927Z,6.70
2019-03-27T03:16:03.430Z,6.80
2019-03-27T03:18:27.862Z,6.82
2019-03-27T03:20:52.278Z,6.77
2019-03-27T03:23:16.703Z,6.70
2019-03-27T03:25:41.242Z,6.67
2019-03-27T03:28:05.642Z,6.60
2019-03-27T03:30:30.207Z,6.41
2019-03-27T03:32:54.624Z,6.35
2019-03-27T03:35:19.160Z,6.53
2019-03-27T03:37:43.630Z,6.73
2019-03-27T03:40:09.013Z,6.83
2019-03-27T03:42:33.970Z,6.84
2019-03-27T03:44:58.420Z,6.52
2019-03-27T03:47:22.841Z,6.77
2019-03-27T03:49:47.271Z,6.53
2019-03-27T03:52:11.770Z,6.47
2019-03-27T03:54:36.779Z,6.49
2019-03-27T03:57:03.743Z,6.67
2019-03-27T03:59:30.216Z,6.52
2019-03-27T04:01:55.258Z,6.57
2019-03-27T04:04:21.657Z,6.33
2019-03-27T04:06:46.092Z,6.41
2019-03-27T04:09:10.601Z,6.47
2019-03-27T04:11:35.085Z,6.34
2019-03-27T04:13:59.537Z,6.44
2019-03-27T04:16:23.947Z,6.60
2019-03-27T04:18:48.354Z,6.38
2019-03-27T04:21:12.788Z,6.69
2019-03-27T04:23:37.203Z,6.20
2019-03-27T04:26:09.478Z,6.51
2019-03-27T04:28:27.813Z,6.52
2019-03-27T04:30:52.318Z,6.48
2019-03-27T04:33:16.795Z,6.53
2019-03-27T04:35:41.273Z,6.62
2019-03-27T04:38:05.728Z,6.70
2019-03-27T04:40:30.264Z,6.53
2019-03-27T04:42:54.646Z,6.53
2019-03-27T04:45:19.086Z,6.49
2019-03-27T04:47:43.516Z,6.67
2019-03-27T04:50:08.272Z,6.63
2019-03-27T04:52:32.669Z,6.37
2019-03-27T04:54:57.221Z,6.63
2019-03-27T04:57:21.644Z,6.58
2019-03-27T04:59:46.059Z,6.72
2019-03-27T05:02:10.469Z,6.95
2019-03-27T05:04:35.626Z,6.88
2019-03-27T05:07:00.125Z,6.72
2019-03-27T05:09:24.541Z,6.77
2019-03-27T05:11:48.958Z,6.67
2019-03-27T05:14:13.369Z,6.67
2019-03-27T05:16:37.826Z,6.71
2019-03-27T05:19:02.225Z,6.67
2019-03-27T05:21:26.658Z,6.95
2019-03-27T05:23:51.149Z,6.86
2019-03-27T05:26:15.567Z,6.56
2019-03-27T05:28:39.978Z,6.91
2019-03-27T05:31:04.415Z,7.00
2019-03-27T05:33:28.900Z,6.95
2019-03-27T05:35:53.350Z,6.87
2019-03-27T05:38:17.757Z,6.97
2019-03-27T05:40:42.182Z,7.00
2019-03-27T05:43:06.575Z,6.88
2019-03-27T05:45:31.001Z,7.12
2019-03-27T05:47:59.699Z,6.85
2019-03-27T05:50:21.608Z,7.06
2019-03-27T05:52:46.048Z,7.16
2019-03-27T05:55:10.525Z,6.89
2019-03-27T05:57:34.953Z,6.73
2019-03-27T05:59:59.438Z,7.25
2019-03-27T06:02:23.888Z,7.25
2019-03-27T06:04:48.301Z,7.47
2019-03-27T06:07:12.827Z,7.18
2019-03-27T06:09:37.250Z,6.82
2019-03-27T06:12:01.686Z,7.24
2019-03-27T06:14:26.097Z,6.90
2019-03-27T06:16:50.532Z,7.11
2019-03-27T06:19:14.942Z,6.97
2019-03-27T06:21:39.448Z,7.04
2019-03-27T06:24:03.884Z,7.18
2019-03-27T06:26:28.295Z,7.13
2019-03-27T06:28:52.701Z,7.11
2019-03-27T06:31:17.209Z,7.09
2019-03-27T06:33:41.707Z,7.26
2019-03-27T06:36:06.146Z,7.01
2019-03-27T06:38:30.649Z,7.64
2019-03-27T06:40:55.062Z,7.13
2019-03-27T06:43:26.884Z,6.88
2019-03-27T06:45:51.283Z,7.17
2019-03-27T06:48:25.757Z,7.07
2019-03-27T06:50:41.908Z,7.23
2019-03-27T06:53:06.352Z,7.14
2019-03-27T06:55:30.826Z,7.27
2019-03-27T06:57:55.277Z,7.40
2019-03-27T07:00:22.718Z,7.34
2019-03-27T07:02:47.177Z,7.28
2019-03-27T07:05:13.462Z,7.34
2019-03-27T07:07:37.957Z,7.31
2019-03-27T07:10:02.714Z,7.47
2019-03-27T07:12:27.138Z,7.48
2019-03-27T07:14:51.546Z,7.44
2019-03-27T07:17:15.961Z,7.19
2019-03-27T07:19:40.418Z,7.37
2019-03-27T07:22:04.973Z,7.67
2019-03-27T07:24:29.401Z,7.36
2019-03-27T07:26:53.815Z,7.57
2019-03-27T07:29:19.175Z,7.59
2019-03-27T07:31:43.743Z,7.28
2019-03-27T07:34:08.309Z,7.48
2019-03-27T07:36:32.721Z,7.47
2019-03-27T07:39:10.240Z,7.64
2019-03-27T07:41:23.273Z,7.83
2019-03-27T07:43:47.770Z,7.44
2019-03-27T07:46:12.243Z,7.23
2019-03-27T07:48:36.764Z,7.31
2019-03-27T07:51:01.160Z,7.42
2019-03-27T07:53:25.571Z,7.68
2019-03-27T07:55:49.987Z,7.88
2019-03-27T07:58:14.412Z,7.79
2019-03-27T08:00:38.870Z,7.68
2019-03-27T08:03:03.353Z,7.87
2019-03-27T08:05:27.791Z,8.40
2019-03-27T08:07:52.207Z,7.80
2019-03-27T08:10:16.784Z,8.09
2019-03-27T08:12:41.190Z,7.76
2019-03-27T08:15:07.265Z,7.84
2019-03-27T08:17:31.698Z,8.05
2019-03-27T08:19:56.123Z,8.20
2019-03-27T08:22:20.547Z,8.17
2019-03-27T08:24:44.983Z,7.92
2019-03-27T08:27:09.535Z,8.46
2019-03-27T08:29:33.973Z,8.67
2019-03-27T08:31:58.383Z,9.11
2019-03-27T08:34:22.806Z,8.35
2019-03-27T08:36:47.234Z,8.22
2019-03-27T08:39:11.710Z,8.76
2019-03-27T08:41:36.684Z,8.69
2019-03-27T08:44:01.081Z,8.70
2019-03-27T08:46:25.519Z,8.82
2019-03-27T08:48:49.930Z,8.64
2019-03-27T08:51:14.338Z,8.99
2019-03-27T08:53:38.748Z,8.62
2019-03-27T08:56:03.179Z,8.86
2019-03-27T08:58:27.591Z,9.02
2019-03-27T09:00:53.864Z,9.20
2019-03-27T09:03:18.617Z,9.13
2019-03-27T09:05:43.109Z,8.89
2019-03-27T09:08:07.516Z,9.01
2019-03-27T09:10:31.950Z,9.22
2019-03-27T09:12:56.356Z,9.10
2019-03-27T09:15:20.786Z,9.06
2019-03-27T09:17:45.175Z,9.41
2019-03-27T09:20:10.512Z,8.92
2019-03-27T09:22:34.951Z,9.16
2019-03-27T09:24:59.451Z,9.27
2019-03-27T09:27:23.901Z,9.36
2019-03-27T09:29:48.300Z,9.08
2019-03-27T09:32:12.714Z,9.33
2019-03-27T09:34:37.248Z,9.20
2019-03-27T09:37:01.681Z,9.48
2019-03-27T09:39:26.109Z,9.74
2019-03-27T09:41:50.618Z,9.24
2019-03-27T09:44:15.040Z,9.64
2019-03-27T09:46:39.614Z,9.43
2019-03-27T09:49:04.140Z,9.57
2019-03-27T09:51:28.548Z,9.65
2019-03-27T09:53:53.410Z,9.39
2019-03-27T09:56:19.575Z,9.44
2019-03-27T09:58:44.154Z,9.44
2019-03-27T10:01:08.664Z,9.75
2019-03-27T10:03:33.150Z,9.87
2019-03-27T10:05:57.732Z,9.66
2019-03-27T10:08:22.202Z,9.83
2019-03-27T10:10:46.611Z,9.94
2019-03-27T10:13:11.019Z,9.83
2019-03-27T10:15:35.747Z,9.72
2019-03-27T10:18:00.243Z,9.53
2019-03-27T10:20:24.666Z,9.89
2019-03-27T10:22:49.087Z,9.85
2019-03-27T10:25:13.694Z,10.14
2019-03-27T10:27:38.230Z,10.50
2019-03-27T10:30:02.791Z,10.07
2019-03-27T10:32:27.214Z,10.15
2019-03-27T10:34:51.637Z,10.07
2019-03-27T10:37:16.078Z,10.08
2019-03-27T10:39:40.521Z,10.02
2019-03-27T10:42:05.065Z,9.88
2019-03-27T10:44:29.582Z,9.99
2019-03-27T10:46:54.014Z,10.37
2019-03-27T10:49:18.571Z,10.62
2019-03-27T10:51:43.000Z,11.01
2019-03-27T10:54:07.483Z,10.79
2019-03-27T10:56:31.903Z,10.27
2019-03-27T10:58:56.318Z,10.98
2019-03-27T11:01:20.744Z,10.90
2019-03-27T11:03:45.171Z,11.00
2019-03-27T11:06:09.589Z,10.70
2019-03-27T11:08:34.051Z,10.81
2019-03-27T11:10:58.465Z,10.78
2019-03-27T11:13:22.900Z,10.99
2019-03-27T11:15:47.367Z,11.27
2019-03-27T11:18:11.942Z,10.95
2019-03-27T11:20:36.350Z,11.05
2019-03-27T11:23:00.911Z,10.61
2019-03-27T11:25:25.397Z,11.33
2019-03-27T11:27:49.909Z,11.21
2019-03-27T11:30:15.209Z,11.62
2019-03-27T11:32:39.616Z,11.74
2019-03-27T11:35:04.754Z,11.37
2019-03-27T11:37:29.228Z,11.54
2019-03-27T11:39:53.753Z,11.61
2019-03-27T11:42:18.183Z,11.87
2019-03-27T11:44:42.675Z,12.34
2019-03-27T11:47:07.190Z,12.28
2019-03-27T11:49:31.763Z,11.84
2019-03-27T11:51:56.201Z,12.07
2019-03-27T11:54:20.704Z,11.99
2019-03-27T11:56:45.200Z,12.97
2019-03-27T11:59:09.613Z,12.36
2019-03-27T12:01:41.983Z,12.62
2019-03-27T12:04:00.224Z,12.46
2019-03-27T12:06:24.630Z,12.75
2019-03-27T12:08:50.827Z,12.30
2019-03-27T12:11:15.266Z,12.52
2019-03-27T12:13:39.765Z,12.99
2019-03-27T12:16:04.457Z,12.56
2019-03-27T12:18:31.798Z,12.80
2019-03-27T12:20:59.350Z,13.02
2019-03-27T12:23:21.303Z,13.31
2019-03-27T12:25:45.741Z,12.70
2019-03-27T12:28:10.330Z,13.34
2019-03-27T12:30:34.869Z,13.02
2019-03-27T12:32:59.293Z,12.57
2019-03-27T12:35:23.698Z,12.90
2019-03-27T12:37:48.089Z,12.63
2019-03-27T12:40:12.676Z,12.82
2019-03-27T12:42:37.255Z,13.08
2019-03-27T12:45:02.324Z,13.30
2019-03-27T12:47:26.856Z,12.87
2019-03-27T12:49:52.005Z,12.85
2019-03-27T12:52:16.465Z,13.26
2019-03-27T12:54:40.957Z,13.81
2019-03-27T12:57:05.435Z,14.46
2019-03-27T12:59:29.873Z,13.46
2019-03-27T13:01:54.280Z,13.07
2019-03-27T13:04:18.706Z,13.76
2019-03-27T13:06:43.258Z,14.46
2019-03-27T13:09:08.597Z,13.76
2019-03-27T13:11:33.015Z,13.38
2019-03-27T13:13:57.436Z,13.01
2019-03-27T13:16:21.848Z,13.04
2019-03-27T13:18:46.266Z,13.23
2019-03-27T13:21:10.735Z,13.55
2019-03-27T13:23:35.140Z,12.94
2019-03-27T13:25:59.651Z,13.13
2019-03-27T13:28:24.054Z,12.51
2019-03-27T13:30:49.416Z,12.58
2019-03-27T13:33:13.877Z,12.64
2019-03-27T13:35:38.330Z,12.63
2019-03-27T13:38:02.755Z,12.59
2019-03-27T13:40:27.161Z,12.72
2019-03-27T13:42:51.576Z,12.20
2019-03-27T13:45:16.466Z,12.54
2019-03-27T13:47:40.911Z,12.90
2019-03-27T13:50:07.859Z,12.72
2019-03-27T13:52:32.268Z,12.62
2019-03-27T13:54:56.717Z,12.79
2019-03-27T13:57:21.207Z,12.91
2019-03-27T13:59:45.645Z,12.56
2019-03-27T14:02:11.599Z,12.46
2019-03-27T14:04:36.029Z,12.04
2019-03-27T14:07:00.451Z,12.24
2019-03-27T14:09:25.557Z,11.94
2019-03-27T14:11:49.980Z,12.21
2019-03-27T14:14:14.375Z,12.09
2019-03-27T14:16:38.960Z,12.40
2019-03-27T14:19:03.336Z,12.27
2019-03-27T14:21:27.776Z,12.36
2019-03-27T14:23:52.170Z,12.06
2019-03-27T14:26:16.603Z,11.88
2019-03-27T14:28:41.059Z,11.85
2019-03-27T14:31:05.658Z,11.89
2019-03-27T14:33:30.051Z,11.98
2019-03-27T14:35:54.623Z,12.57
2019-03-27T14:38:19.092Z,12.17
2019-03-27T14:40:43.525Z,11.89
2019-03-27T14:43:07.940Z,11.77
2019-03-27T14:45:32.367Z,11.97
2019-03-27T14:47:56.788Z,12.18
2019-03-27T14:50:21.225Z,11.89
2019-03-27T14:52:45.642Z,12.27
2019-03-27T14:55:10.690Z,12.04
2019-03-27T14:57:35.183Z,11.40
2019-03-27T14:59:59.595Z,11.45
2019-03-27T15:02:24.071Z,11.65
2019-03-27T15:04:48.475Z,11.46
2019-03-27T15:07:13.340Z,11.49
2019-03-27T15:09:37.781Z,11.59
2019-03-27T15:12:02.231Z,11.71
2019-03-27T15:14:26.803Z,11.40
2019-03-27T15:16:51.276Z,11.72
2019-03-27T15:19:15.738Z,11.80
2019-03-27T15:21:40.166Z,11.50
2019-03-27T15:24:04.626Z,11.62
2019-03-27T15:26:29.050Z,11.76
2019-03-27T15:28:53.456Z,11.41
2019-03-27T15:31:20.799Z,11.54
2019-03-27T15:33:44.076Z,12.17
2019-03-27T15:36:08.610Z,11.53
2019-03-27T15:38:33.028Z,11.73
2019-03-27T15:40:57.523Z,11.68
2019-03-27T15:43:22.051Z,11.85
2019-03-27T15:45:46.672Z,11.93
2019-03-27T15:48:11.143Z,11.48
2019-03-27T15:50:35.637Z,11.48
2019-03-27T15:53:00.129Z,11.61
2019-03-27T15:55:24.598Z,11.29
2019-03-27T15:57:49.035Z,11.40
2019-03-27T16:00:15.326Z,11.19
2019-03-27T16:02:39.760Z,11.92
2019-03-27T16:05:05.722Z,11.61
2019-03-27T16:07:31.380Z,11.69
2019-03-27T16:09:56.100Z,11.56
2019-03-27T16:12:20.585Z,11.48
2019-03-27T16:14:44.994Z,11.50
2019-03-27T16:17:13.533Z,11.49
2019-03-27T16:19:35.602Z,11.79
2019-03-27T16:22:00.016Z,11.03
2019-03-27T16:24:24.433Z,11.33
2019-03-27T16:27:03.578Z,11.52
2019-03-27T16:29:14.969Z,11.74
2019-03-27T16:31:39.454Z,11.37
2019-03-27T16:34:04.014Z,11.41
2019-03-27T16:36:28.545Z,11.25
2019-03-27T16:38:52.957Z,11.28
2019-03-27T16:41:17.356Z,11.63
2019-03-27T16:43:44.162Z,10.94
2019-03-27T16:46:08.286Z,11.17
2019-03-27T16:48:32.714Z,11.41
2019-03-27T16:50:57.121Z,11.18
2019-03-27T16:53:21.560Z,11.31
2019-03-27T16:55:46.196Z,10.73
2019-03-27T16:58:10.733Z,10.61
2019-03-27T17:00:35.261Z,10.55
2019-03-27T17:03:02.468Z,10.72
2019-03-27T17:05:26.890Z,10.62
2019-03-27T17:07:51.321Z,10.72
2019-03-27T17:10:15.932Z,10.65
2019-03-27T17:12:40.381Z,10.37
2019-03-27T17:15:06.209Z,10.66
2019-03-27T17:17:30.743Z,10.51
2019-03-27T17:19:55.136Z,10.37
2019-03-27T17:22:20.141Z,10.59
2019-03-27T17:24:44.743Z,10.44
2019-03-27T17:27:09.173Z,10.47
2019-03-27T17:29:33.578Z,10.27
2019-03-27T17:31:57.991Z,10.23
2019-03-27T17:34:22.425Z,10.24
2019-03-27T17:36:46.834Z,10.50
2019-03-27T17:39:11.339Z,10.24
2019-03-27T17:41:35.800Z,10.13
2019-03-27T17:44:00.236Z,10.36
2019-03-27T17:46:24.638Z,10.43
2019-03-27T17:48:49.065Z,10.17
2019-03-27T17:51:13.468Z,10.06
2019-03-27T17:53:37.888Z,10.02
2019-03-27T17:56:02.298Z,10.02
2019-03-27T17:58:26.807Z,10.15
2019-03-27T18:00:52.217Z,9.92
2019-03-27T18:03:16.703Z,10.18
2019-03-27T18:05:41.111Z,10.02
2019-03-27T18:08:05.615Z,10.01
2019-03-27T18:10:30.018Z,10.52
2019-03-27T18:12:54.415Z,10.55
2019-03-27T18:15:18.856Z,10.21
2019-03-27T18:17:43.269Z,10.12
2019-03-27T18:20:07.777Z,10.12
2019-03-27T18:22:32.185Z,10.07
2019-03-27T18:24:56.611Z,10.24
2019-03-27T18:27:21.012Z,10.39
2019-03-27T18:29:45.455Z,10.49
2019-03-27T18:32:09.940Z,10.07
2019-03-27T18:34:34.437Z,9.78
2019-03-27T18:36:58.841Z,9.85
2019-03-27T18:39:23.267Z,9.87
2019-03-27T18:41:47.695Z,9.95
2019-03-27T18:44:12.457Z,9.88
2019-03-27T18:46:36.986Z,10.23
2019-03-27T18:49:01.412Z,10.10
2019-03-27T18:51:26.043Z,10.09
2019-03-27T18:53:59.676Z,10.05
2019-03-27T18:56:16.647Z,9.91
2019-03-27T18:58:41.048Z,9.94
2019-03-27T19:01:05.609Z,10.04
2019-03-27T19:03:30.024Z,10.12
2019-03-27T19:05:54.448Z,10.13
2019-03-27T19:08:18.923Z,9.90
2019-03-27T19:10:43.530Z,10.04
2019-03-27T19:13:07.930Z,10.22
2019-03-27T19:15:32.436Z,10.06
2019-03-27T19:17:56.923Z,9.97
2019-03-27T19:20:21.434Z,9.96
2019-03-27T19:22:45.869Z,9.81
2019-03-27T19:25:10.359Z,9.95
2019-03-27T19:27:34.759Z,9.95
2019-03-27T19:29:59.191Z,9.76
2019-03-27T19:32:23.682Z,9.69
2019-03-27T19:34:51.110Z,9.75
2019-03-27T19:37:15.710Z,9.64
2019-03-27T19:39:40.177Z,9.60
2019-03-27T19:42:04.725Z,9.63
2019-03-27T19:44:29.190Z,9.63
2019-03-27T19:46:53.630Z,9.72
2019-03-27T19:49:18.231Z,9.76
2019-03-27T19:51:42.724Z,9.73
2019-03-27T19:54:08.235Z,9.82
2019-03-27T19:56:32.742Z,9.89
2019-03-27T19:58:57.138Z,9.74
2019-03-27T20:01:21.570Z,9.73
2019-03-27T20:03:46.049Z,9.71
2019-03-27T20:06:10.472Z,9.78
2019-03-27T20:08:34.879Z,9.64
2019-03-27T20:10:59.342Z,9.63
2019-03-27T20:13:23.750Z,9.58
2019-03-27T20:15:48.314Z,9.59
2019-03-27T20:18:12.779Z,9.76
2019-03-27T20:20:37.288Z,9.71
2019-03-27T20:23:14.269Z,9.95
2019-03-27T20:25:27.946Z,9.70
2019-03-27T20:27:52.397Z,9.67
2019-03-27T20:30:19.191Z,9.58
2019-03-27T20:32:43.597Z,9.43
2019-03-27T20:35:08.148Z,9.46
2019-03-27T20:37:32.583Z,9.47
2019-03-27T20:39:57.150Z,9.46
2019-03-27T20:42:21.597Z,9.44
2019-03-27T20:44:46.011Z,9.63
2019-03-27T20:47:10.552Z,9.38
2019-03-27T20:49:34.967Z,9.63
2019-03-27T20:51:59.568Z,9.57
2019-03-27T20:54:23.962Z,9.49
2019-03-27T20:56:48.398Z,9.59
2019-03-27T20:59:12.802Z,9.62
2019-03-27T21:01:37.313Z,9.51
2019-03-27T21:04:01.726Z,9.54
2019-03-27T21:06:26.141Z,9.49
2019-03-27T21:08:50.647Z,9.58
2019-03-27T21:11:15.062Z,9.46
2019-03-27T21:13:41.208Z,9.65
2019-03-27T21:16:05.663Z,9.55
2019-03-27T21:18:30.113Z,9.61
2019-03-27T21:20:54.693Z,9.56
2019-03-27T21:23:19.119Z,9.59
2019-03-27T21:25:43.536Z,9.54
2019-03-27T21:28:08.046Z,9.61
2019-03-27T21:30:32.483Z,9.84
2019-03-27T21:32:56.950Z,9.74
2019-03-27T21:35:21.375Z,9.65
2019-03-27T21:37:45.830Z,9.50
2019-03-27T21:40:10.614Z,9.34
2019-03-27T21:42:35.149Z,9.52
2019-03-27T21:44:59.574Z,9.29
2019-03-27T21:47:24.023Z,9.34
2019-03-27T21:49:48.565Z,9.34
2019-03-27T21:52:12.992Z,9.43
2019-03-27T21:54:37.546Z,9.38
2019-03-27T21:57:01.984Z,9.39
2019-03-27T21:59:26.432Z,9.57
2019-03-27T22:01:50.872Z,9.42
2019-03-27T22:04:15.388Z,9.31
2019-03-27T22:06:39.901Z,9.30
2019-03-27T22:09:06.394Z,9.42
2019-03-27T22:11:30.823Z,9.32
2019-03-27T22:13:55.275Z,9.32
2019-03-27T22:16:19.722Z,9.34
2019-03-27T22:18:44.167Z,9.38
2019-03-27T22:21:08.668Z,9.39
2019-03-27T22:23:34.634Z,9.30
2019-03-27T22:25:59.069Z,9.29
2019-03-27T22:28:23.537Z,9.26
2019-03-27T22:30:48.105Z,9.21
2019-03-27T22:33:12.563Z,9.29
2019-03-27T22:35:36.995Z,9.20
2019-03-27T22:38:01.481Z,9.24
2019-03-27T22:40:25.927Z,9.24
2019-03-27T22:42:50.346Z,9.34
2019-03-27T22:45:14.878Z,9.06
2019-03-27T22:47:39.305Z,9.23
2019-03-27T22:50:08.021Z,9.37
2019-03-27T22:52:31.826Z,9.33
2019-03-27T22:54:56.288Z,9.44
2019-03-27T22:57:20.716Z,9.16
2019-03-27T22:59:45.171Z,9.24
2019-03-27T23:02:09.695Z,9.20
2019-03-27T23:04:34.138Z,9.24
2019-03-27T23:06:58.656Z,9.36
2019-03-27T23:09:23.111Z,9.25
2019-03-27T23:11:47.548Z,9.38
2019-03-27T23:14:12.285Z,9.36
2019-03-27T23:16:36.723Z,9.22
2019-03-27T23:19:01.181Z,9.22
2019-03-27T23:21:25.694Z,8.97
2019-03-27T23:23:50.140Z,9.35
2019-03-27T23:26:14.575Z,9.63
2019-03-27T23:28:39.013Z,9.34
2019-03-27T23:31:03.545Z,9.47
2019-03-27T23:33:27.982Z,9.36
2019-03-27T23:35:52.511Z,9.44
2019-03-27T23:38:16.950Z,9.35
2019-03-27T23:40:41.540Z,9.25
2019-03-27T23:43:05.970Z,9.45
2019-03-27T23:45:30.424Z,9.26
2019-03-27T23:47:54.891Z,9.46
2019-03-27T23:50:19.341Z,9.40
2019-03-27T23:52:43.871Z,9.15
2019-03-27T23:55:08.552Z,9.28
2019-03-27T23:57:32.987Z,9.05
2019-03-27T23:59:57.434Z,9.00
